Time;durP1;ratioP1;P1;durP2;ratioP2;P2;SDS_P1;SDS_P2;PMS_P1;PMS_P2;Temp;Humidity;BMP_temperature;BMP_pressure;BME280_temperature;BME280_humidity;BME280_pressure;Samples;Min_cycle;Max_cycle;Signal;HPM_P1;HPM_P2
2023/08/12 00:00:12;;;;;;;5.80;2.78;;;;;;;;;;4988211;28;20036;-81
2023/08/12 00:02:40;;;;;;;5.47;2.45;;;;;;;;;;4981301;28;20042;-81
2023/08/12 00:05:07;;;;;;;4.63;2.58;;;;;;;;;;5011888;28;20080;-80
2023/08/12 00:07:35;;;;;;;4.75;2.60;;;;;;;;;;4982220;28;20037;-81
2023/08/12 00:10:09;;;;;;;5.03;2.85;;;;;;;;;;5014091;28;20053;-82
2023/08/12 00:12:35;;;;;;;5.40;3.22;;;;;;;;;;4999641;28;20046;-82
2023/08/12 00:15:02;;;;;;;4.43;2.47;;;;;;;;;;5021711;28;20103;-82
2023/08/12 00:17:28;;;;;;;5.90;2.65;;;;;;;;;;5004855;28;20397;-81
2023/08/12 00:19:53;;;;;;;5.88;2.88;;;;;;;;;;4985121;28;20046;-81
2023/08/12 00:22:19;;;;;;;4.30;2.95;;;;;;;;;;5011256;28;20076;-81
2023/08/12 00:24:44;;;;;;;5.55;3.00;;;;;;;;;;4985929;28;20056;-82
2023/08/12 00:27:10;;;;;;;4.00;2.40;;;;;;;;;;4988178;28;20540;-82
2023/08/12 00:29:36;;;;;;;6.25;2.92;;;;;;;;;;5010701;28;20049;-81
2023/08/12 00:32:02;;;;;;;4.95;2.97;;;;;;;;;;5000945;28;20583;-81
2023/08/12 00:34:27;;;;;;;4.70;2.75;;;;;;;;;;4991313;28;20105;-82
2023/08/12 00:36:53;;;;;;;6.40;2.75;;;;;;;;;;4979779;28;20029;-81
2023/08/12 00:39:18;;;;;;;4.60;3.03;;;;;;;;;;4980758;28;20029;-82
2023/08/12 00:41:43;;;;;;;5.97;3.13;;;;;;;;;;4996600;28;20038;-81
2023/08/12 00:44:09;;;;;;;6.55;3.30;;;;;;;;;;4985264;28;20041;-81
2023/08/12 00:46:35;;;;;;;4.88;3.08;;;;;;;;;;5004576;28;20125;-81
2023/08/12 00:49:00;;;;;;;5.97;2.97;;;;;;;;;;4971154;28;20094;-81
2023/08/12 00:51:26;;;;;;;4.82;3.20;;;;;;;;;;4993540;28;20037;-82
2023/08/12 00:53:52;;;;;;;5.65;2.90;;;;;;;;;;4981625;28;20061;-81
2023/08/12 00:56:18;;;;;;;6.22;3.00;;;;;;;;;;4986651;28;20520;-81
2023/08/12 00:58:43;;;;;;;6.55;3.00;;;;;;;;;;4989782;28;20061;-81
2023/08/12 01:01:10;;;;;;;5.60;3.05;;;;;;;;;;4981836;28;20433;-81
2023/08/12 01:03:35;;;;;;;4.57;2.78;;;;;;;;;;5017734;28;20029;-82
2023/08/12 01:06:01;;;;;;;4.68;3.00;;;;;;;;;;4989179;28;20037;-81
2023/08/12 01:08:30;;;;;;;5.20;3.17;;;;;;;;;;5018400;28;20054;-82
2023/08/12 01:11:21;;;;;;;6.78;3.35;;;;;;;;;;5011345;28;20497;-81
2023/08/12 01:14:00;;;;;;;4.65;3.00;;;;;;;;;;4989950;28;20034;-81
2023/08/12 01:16:29;;;;;;;4.47;2.90;;;;;;;;;;5010853;28;20029;-81
2023/08/12 01:18:55;;;;;;;5.68;3.30;;;;;;;;;;4982700;28;20053;-80
2023/08/12 01:21:22;;;;;;;5.50;3.05;;;;;;;;;;4978855;28;20350;-82
2023/08/12 01:23:47;;;;;;;6.47;3.07;;;;;;;;;;5016755;28;20040;-80
2023/08/12 01:26:12;;;;;;;5.18;3.15;;;;;;;;;;4999958;28;20041;-81
2023/08/12 01:28:38;;;;;;;6.47;3.03;;;;;;;;;;5002838;28;20030;-82
2023/08/12 01:31:12;;;;;;;4.53;2.85;;;;;;;;;;5021257;28;20069;-82
2023/08/12 01:33:44;;;;;;;5.63;2.90;;;;;;;;;;5021574;28;20144;-81
2023/08/12 01:36:13;;;;;;;4.57;3.03;;;;;;;;;;4977003;28;20057;-81
2023/08/12 01:38:39;;;;;;;5.03;2.95;;;;;;;;;;4994717;28;20037;-81
2023/08/12 01:41:04;;;;;;;5.97;3.28;;;;;;;;;;4956725;28;20037;-81
2023/08/12 01:43:30;;;;;;;5.78;2.97;;;;;;;;;;4993230;28;20042;-84
2023/08/12 01:45:56;;;;;;;5.38;3.38;;;;;;;;;;4993237;28;20033;-81
2023/08/12 01:48:24;;;;;;;4.85;3.03;;;;;;;;;;4985916;28;20030;-81
2023/08/12 01:50:50;;;;;;;9.88;3.10;;;;;;;;;;4994896;28;20125;-83
2023/08/12 01:53:15;;;;;;;6.20;3.40;;;;;;;;;;5026916;28;20090;-81
2023/08/12 01:55:44;;;;;;;5.80;3.33;;;;;;;;;;4985610;28;20033;-82
2023/08/12 01:58:09;;;;;;;5.18;3.22;;;;;;;;;;4986589;28;20037;-81
2023/08/12 02:00:35;;;;;;;6.95;3.33;;;;;;;;;;4979832;28;20113;-81
2023/08/12 02:03:00;;;;;;;5.65;3.00;;;;;;;;;;5020586;28;20072;-82
2023/08/12 02:05:26;;;;;;;5.47;3.13;;;;;;;;;;4996756;28;20036;-81
2023/08/12 02:07:51;;;;;;;8.55;3.20;;;;;;;;;;4979136;28;20034;-81
2023/08/12 02:10:16;;;;;;;8.45;3.15;;;;;;;;;;5003716;28;20076;-82
2023/08/12 02:12:42;;;;;;;4.22;2.90;;;;;;;;;;4976121;28;20124;-81
2023/08/12 02:15:08;;;;;;;5.13;3.08;;;;;;;;;;4995232;28;20524;-81
2023/08/12 02:17:33;;;;;;;3.95;3.00;;;;;;;;;;4981940;28;20125;-82
2023/08/12 02:19:58;;;;;;;5.85;3.40;;;;;;;;;;4983278;28;20061;-81
2023/08/12 02:22:24;;;;;;;6.55;2.83;;;;;;;;;;4997630;28;20539;-80
2023/08/12 02:24:50;;;;;;;5.70;3.00;;;;;;;;;;4969380;28;20401;-80
2023/08/12 02:27:15;;;;;;;4.85;2.97;;;;;;;;;;5012489;28;20044;-81
2023/08/12 02:29:40;;;;;;;6.15;3.53;;;;;;;;;;4995158;28;20045;-80
2023/08/12 02:32:09;;;;;;;7.18;3.30;;;;;;;;;;4993555;28;20542;-80
2023/08/12 02:34:34;;;;;;;5.70;3.13;;;;;;;;;;5003987;28;20045;-80
2023/08/12 02:37:00;;;;;;;6.72;3.35;;;;;;;;;;5010539;28;20038;-82
2023/08/12 02:39:28;;;;;;;5.03;3.03;;;;;;;;;;4990615;28;20489;-83
2023/08/12 02:41:53;;;;;;;6.78;3.17;;;;;;;;;;4988116;28;20047;-80
2023/08/12 02:44:19;;;;;;;7.80;3.10;;;;;;;;;;4981662;28;20030;-82
2023/08/12 02:46:44;;;;;;;5.18;3.35;;;;;;;;;;4984638;28;20481;-82
2023/08/12 02:49:10;;;;;;;5.43;3.03;;;;;;;;;;5000179;28;20045;-82
2023/08/12 02:51:37;;;;;;;7.30;2.92;;;;;;;;;;5023710;28;20049;-81
2023/08/12 02:54:02;;;;;;;5.70;3.20;;;;;;;;;;4982836;28;20061;-82
2023/08/12 02:56:28;;;;;;;5.03;3.10;;;;;;;;;;4990291;28;20061;-81
2023/08/12 02:58:53;;;;;;;4.95;3.08;;;;;;;;;;4985292;28;20042;-80
2023/08/12 03:01:19;;;;;;;5.00;2.90;;;;;;;;;;4983658;28;20452;-82
2023/08/12 03:03:44;;;;;;;5.28;2.80;;;;;;;;;;4984159;28;20096;-80
2023/08/12 03:06:10;;;;;;;6.75;3.92;;;;;;;;;;4997120;28;20037;-81
2023/08/12 03:08:35;;;;;;;5.20;3.38;;;;;;;;;;4990299;28;20065;-82
2023/08/12 03:11:01;;;;;;;6.00;3.13;;;;;;;;;;4981885;28;20038;-81
2023/08/12 03:13:27;;;;;;;5.93;3.22;;;;;;;;;;4999286;28;20034;-82
2023/08/12 03:15:52;;;;;;;5.18;3.10;;;;;;;;;;4989596;28;21040;-81
2023/08/12 03:18:18;;;;;;;4.93;3.33;;;;;;;;;;5012698;28;20025;-82
2023/08/12 03:20:43;;;;;;;5.03;3.20;;;;;;;;;;4989941;28;20037;-81
2023/08/12 03:23:09;;;;;;;5.80;3.40;;;;;;;;;;5015365;28;20042;-82
2023/08/12 03:25:34;;;;;;;5.22;3.40;;;;;;;;;;4988645;28;20029;-81
2023/08/12 03:27:59;;;;;;;6.45;3.30;;;;;;;;;;4990823;28;20045;-82
2023/08/12 03:30:25;;;;;;;4.57;3.33;;;;;;;;;;5021296;28;20041;-82
2023/08/12 03:32:51;;;;;;;5.72;3.10;;;;;;;;;;5017960;28;20069;-81
2023/08/12 03:35:17;;;;;;;4.90;2.92;;;;;;;;;;5013883;28;20044;-81
2023/08/12 03:37:42;;;;;;;4.75;3.30;;;;;;;;;;4989282;28;20041;-84
2023/08/12 03:40:20;;;;;;;5.50;3.20;;;;;;;;;;4979213;28;20653;-80
2023/08/12 03:43:06;;;;;;;6.38;2.80;;;;;;;;;;4997453;28;20057;-81
2023/08/12 03:45:31;;;;;;;6.15;3.17;;;;;;;;;;4962470;28;20161;-82
2023/08/12 03:47:59;;;;;;;5.53;3.40;;;;;;;;;;4947617;28;20497;-80
2023/08/12 03:50:24;;;;;;;4.53;2.90;;;;;;;;;;4953327;28;20384;-82
2023/08/12 03:52:50;;;;;;;5.25;3.22;;;;;;;;;;4965826;28;20053;-81
2023/08/12 03:55:15;;;;;;;4.93;3.08;;;;;;;;;;4964784;28;20034;-81
2023/08/12 03:57:40;;;;;;;5.50;3.00;;;;;;;;;;4962143;28;20034;-81
2023/08/12 04:00:08;;;;;;;7.57;3.65;;;;;;;;;;4942527;28;20521;-80
2023/08/12 04:02:34;;;;;;;5.28;3.33;;;;;;;;;;4942353;28;20129;-83
2023/08/12 04:04:59;;;;;;;7.93;3.40;;;;;;;;;;4965886;28;20846;-81
2023/08/12 04:07:26;;;;;;;5.03;3.08;;;;;;;;;;4961072;28;20049;-82
2023/08/12 04:09:52;;;;;;;6.67;3.30;;;;;;;;;;4944000;28;20055;-82
2023/08/12 04:12:17;;;;;;;4.03;3.10;;;;;;;;;;4948247;28;20100;-80
2023/08/12 04:14:43;;;;;;;9.27;3.63;;;;;;;;;;4934796;28;20042;-81
2023/08/12 04:17:08;;;;;;;5.90;3.15;;;;;;;;;;4948062;28;20041;-81
2023/08/12 04:19:33;;;;;;;8.30;3.20;;;;;;;;;;4976226;28;20043;-82
2023/08/12 04:21:59;;;;;;;5.93;3.08;;;;;;;;;;4947092;28;20167;-81
2023/08/12 04:24:24;;;;;;;6.80;3.30;;;;;;;;;;5004859;28;20053;-81
2023/08/12 04:26:49;;;;;;;6.47;3.20;;;;;;;;;;5005522;28;20044;-82
2023/08/12 04:29:15;;;;;;;5.50;3.28;;;;;;;;;;4974060;28;20057;-81
2023/08/12 04:31:40;;;;;;;6.32;3.60;;;;;;;;;;5016214;28;20366;-80
2023/08/12 04:34:06;;;;;;;5.55;3.30;;;;;;;;;;4989105;28;20079;-81
2023/08/12 04:36:31;;;;;;;7.28;3.53;;;;;;;;;;4984593;28;20107;-81
2023/08/12 04:38:57;;;;;;;8.18;3.95;;;;;;;;;;5015291;28;20038;-81
2023/08/12 04:41:23;;;;;;;6.70;3.50;;;;;;;;;;4980080;28;20080;-81
2023/08/12 04:43:49;;;;;;;5.43;3.28;;;;;;;;;;4982947;28;20046;-82
2023/08/12 04:46:14;;;;;;;8.18;3.72;;;;;;;;;;4987965;28;20041;-80
2023/08/12 04:48:40;;;;;;;5.30;3.15;;;;;;;;;;4979109;28;20041;-83
2023/08/12 04:51:06;;;;;;;6.03;2.95;;;;;;;;;;4973329;28;20060;-82
2023/08/12 04:53:32;;;;;;;7.47;3.30;;;;;;;;;;4998549;28;20635;-81
2023/08/12 04:55:57;;;;;;;4.82;3.22;;;;;;;;;;5002437;28;20037;-81
2023/08/12 04:58:23;;;;;;;5.72;3.50;;;;;;;;;;5003187;28;20053;-82
2023/08/12 05:00:48;;;;;;;5.93;3.03;;;;;;;;;;4985124;28;20095;-82
2023/08/12 05:03:14;;;;;;;6.25;3.00;;;;;;;;;;5012944;28;20045;-81
2023/08/12 05:05:39;;;;;;;5.40;2.75;;;;;;;;;;5021583;28;20041;-80
2023/08/12 05:08:05;;;;;;;5.22;3.00;;;;;;;;;;4988019;28;20402;-81
2023/08/12 05:10:36;;;;;;;8.70;2.90;;;;;;;;;;4985783;28;20048;-82
2023/08/12 05:13:02;;;;;;;7.65;3.00;;;;;;;;;;4987130;28;20042;-82
2023/08/12 05:15:27;;;;;;;4.80;2.65;;;;;;;;;;5012386;28;20068;-81
2023/08/12 05:17:53;;;;;;;5.18;3.10;;;;;;;;;;4989303;28;20460;-82
2023/08/12 05:20:18;;;;;;;4.95;3.15;;;;;;;;;;4984063;28;20040;-80
2023/08/12 05:22:43;;;;;;;4.40;2.45;;;;;;;;;;4986453;28;20370;-80
2023/08/12 05:25:09;;;;;;;5.32;2.42;;;;;;;;;;5016561;28;20037;-81
2023/08/12 05:27:34;;;;;;;4.28;2.60;;;;;;;;;;4985482;28;20440;-83
2023/08/12 05:30:08;;;;;;;4.55;2.60;;;;;;;;;;4988684;28;20042;-81
2023/08/12 05:32:33;;;;;;;5.78;2.60;;;;;;;;;;5016165;28;20113;-82
2023/08/12 05:34:59;;;;;;;6.03;2.65;;;;;;;;;;4996899;28;20045;-83
2023/08/12 05:37:24;;;;;;;6.65;2.55;;;;;;;;;;4977765;28;20834;-82
2023/08/12 05:39:50;;;;;;;6.50;2.30;;;;;;;;;;4979941;28;20048;-81
2023/08/12 05:42:15;;;;;;;5.63;2.55;;;;;;;;;;4985196;28;20030;-83
2023/08/12 05:44:42;;;;;;;4.95;2.72;;;;;;;;;;5009526;28;20048;-82
2023/08/12 05:47:07;;;;;;;6.07;2.40;;;;;;;;;;4985959;28;20448;-81
2023/08/12 05:49:32;;;;;;;4.88;2.47;;;;;;;;;;4976311;28;20037;-82
2023/08/12 05:51:58;;;;;;;4.35;2.50;;;;;;;;;;4989532;28;20046;-82
2023/08/12 05:54:23;;;;;;;4.78;2.33;;;;;;;;;;4979225;28;20087;-81
2023/08/12 05:56:49;;;;;;;4.68;2.58;;;;;;;;;;4979736;28;20033;-81
2023/08/12 05:59:14;;;;;;;4.10;2.40;;;;;;;;;;4987274;28;20038;-82
2023/08/12 06:01:40;;;;;;;6.00;2.50;;;;;;;;;;4993922;28;21166;-83
2023/08/12 06:04:05;;;;;;;4.68;2.42;;;;;;;;;;4993895;28;20046;-82
2023/08/12 06:06:33;;;;;;;4.45;2.38;;;;;;;;;;5013719;28;21072;-81
2023/08/12 06:08:59;;;;;;;4.90;2.65;;;;;;;;;;5004298;28;20073;-83
2023/08/12 06:11:24;;;;;;;4.97;2.70;;;;;;;;;;4982492;28;20643;-82
2023/08/12 06:13:58;;;;;;;4.50;2.47;;;;;;;;;;4986374;28;20385;-82
2023/08/12 06:16:23;;;;;;;5.82;2.75;;;;;;;;;;5009763;28;20561;-82
2023/08/12 06:18:49;;;;;;;5.03;2.60;;;;;;;;;;5013352;28;20125;-83
2023/08/12 06:21:14;;;;;;;5.20;2.55;;;;;;;;;;4990619;28;20049;-81
2023/08/12 06:23:40;;;;;;;6.03;2.47;;;;;;;;;;4992224;28;20056;-82
2023/08/12 06:26:05;;;;;;;4.57;2.70;;;;;;;;;;4979020;28;20029;-82
2023/08/12 06:28:33;;;;;;;4.55;2.70;;;;;;;;;;4992152;28;20105;-82
2023/08/12 06:31:04;;;;;;;5.28;2.47;;;;;;;;;;4989902;28;20898;-81
2023/08/12 06:33:29;;;;;;;6.45;2.60;;;;;;;;;;4967187;28;20386;-82
2023/08/12 06:35:54;;;;;;;4.82;2.65;;;;;;;;;;5001406;28;20153;-82
2023/08/12 06:38:23;;;;;;;5.78;2.40;;;;;;;;;;4978334;28;20037;-81
2023/08/12 06:40:48;;;;;;;6.35;2.83;;;;;;;;;;4986321;28;20065;-81
2023/08/12 06:43:14;;;;;;;4.93;2.55;;;;;;;;;;4988593;28;20057;-83
2023/08/12 06:45:39;;;;;;;4.97;2.63;;;;;;;;;;4999935;28;20060;-81
2023/08/12 06:48:05;;;;;;;5.00;2.47;;;;;;;;;;4979085;28;20108;-81
2023/08/12 06:50:33;;;;;;;5.13;2.72;;;;;;;;;;4992244;28;20433;-83
2023/08/12 06:52:58;;;;;;;5.70;2.80;;;;;;;;;;4988815;28;20591;-82
2023/08/12 06:55:24;;;;;;;8.18;3.17;;;;;;;;;;5013048;28;20121;-81
2023/08/12 06:57:49;;;;;;;6.00;2.53;;;;;;;;;;4984881;28;20041;-81
2023/08/12 07:00:15;;;;;;;5.05;2.90;;;;;;;;;;4996438;28;20118;-81
2023/08/12 07:02:42;;;;;;;5.13;2.80;;;;;;;;;;4998910;28;20507;-82
2023/08/12 07:05:13;;;;;;;4.80;2.72;;;;;;;;;;5021895;28;20157;-80
2023/08/12 07:07:39;;;;;;;6.05;2.80;;;;;;;;;;5014475;28;20542;-82
2023/08/12 07:10:06;;;;;;;5.93;2.95;;;;;;;;;;4983158;28;20105;-83
2023/08/12 07:12:32;;;;;;;5.88;2.95;;;;;;;;;;4993347;28;20762;-82
2023/08/12 07:15:06;;;;;;;6.20;2.50;;;;;;;;;;4991475;28;20535;-82
2023/08/12 07:17:32;;;;;;;5.55;2.63;;;;;;;;;;4980110;28;20038;-82
2023/08/12 07:19:57;;;;;;;4.60;2.53;;;;;;;;;;5000519;28;21193;-82
2023/08/12 07:22:23;;;;;;;5.45;2.50;;;;;;;;;;5002857;28;20029;-81
2023/08/12 07:24:55;;;;;;;9.93;4.13;;;;;;;;;;4982346;28;20116;-81
2023/08/12 07:27:20;;;;;;;5.70;2.50;;;;;;;;;;4963138;28;20030;-81
2023/08/12 07:29:47;;;;;;;5.82;2.78;;;;;;;;;;5001407;28;20034;-83
2023/08/12 07:32:12;;;;;;;4.53;2.40;;;;;;;;;;4992320;28;20037;-83
2023/08/12 07:34:40;;;;;;;5.80;2.50;;;;;;;;;;4996325;28;20092;-84
2023/08/12 07:37:20;;;;;;;4.28;2.35;;;;;;;;;;4966893;28;20037;-83
2023/08/12 07:39:45;;;;;;;5.30;2.80;;;;;;;;;;4957662;28;20504;-84
2023/08/12 07:42:12;;;;;;;6.25;2.40;;;;;;;;;;4979518;28;20048;-83
2023/08/12 07:45:09;;;;;;;5.45;2.78;;;;;;;;;;4982608;28;20587;-83
2023/08/12 07:47:37;;;;;;;4.85;2.38;;;;;;;;;;5001405;28;20448;-83
2023/08/12 07:52:53;;;;;;;7.35;2.70;;;;;;;;;;4997051;28;20138;-84
2023/08/12 07:55:18;;;;;;;7.10;3.10;;;;;;;;;;4953183;28;20496;-84
2023/08/12 07:57:46;;;;;;;4.78;2.70;;;;;;;;;;4999129;28;20049;-83
2023/08/12 08:00:17;;;;;;;7.63;2.50;;;;;;;;;;4972335;28;20048;-83
2023/08/12 08:03:18;;;;;;;4.22;2.58;;;;;;;;;;4967815;28;20109;-84
2023/08/12 08:05:45;;;;;;;4.35;2.50;;;;;;;;;;4987065;28;20061;-83
2023/08/12 08:08:31;;;;;;;3.88;2.40;;;;;;;;;;4985949;28;20037;-84
2023/08/12 08:11:01;;;;;;;4.13;2.40;;;;;;;;;;4972968;28;20380;-83
2023/08/12 08:13:32;;;;;;;6.53;2.58;;;;;;;;;;4945123;28;20528;-84
2023/08/12 08:15:57;;;;;;;6.18;2.80;;;;;;;;;;4998740;28;20037;-83
2023/08/12 08:18:30;;;;;;;4.90;2.80;;;;;;;;;;4992123;28;20048;-84
2023/08/12 08:20:55;;;;;;;7.00;3.03;;;;;;;;;;5009125;28;20497;-81
2023/08/12 08:23:21;;;;;;;4.97;3.10;;;;;;;;;;4983283;28;20036;-81
2023/08/12 08:25:46;;;;;;;7.18;3.25;;;;;;;;;;4978509;28;20092;-80
2023/08/12 08:28:12;;;;;;;4.88;2.80;;;;;;;;;;5020900;28;20041;-80
2023/08/12 08:30:38;;;;;;;6.18;2.80;;;;;;;;;;5008868;28;20516;-80
2023/08/12 08:33:03;;;;;;;4.25;2.85;;;;;;;;;;4997561;28;20041;-81
2023/08/12 08:35:32;;;;;;;6.28;2.85;;;;;;;;;;4983965;28;20034;-80
2023/08/12 08:37:57;;;;;;;5.15;3.00;;;;;;;;;;5015026;28;20061;-80
2023/08/12 08:40:23;;;;;;;5.07;2.90;;;;;;;;;;5012734;28;20084;-80
2023/08/12 08:42:55;;;;;;;6.82;3.13;;;;;;;;;;5010958;28;20093;-81
2023/08/12 08:45:21;;;;;;;5.07;3.15;;;;;;;;;;4992322;28;20030;-81
2023/08/12 08:47:48;;;;;;;5.85;2.78;;;;;;;;;;5012318;28;20204;-81
2023/08/12 08:50:14;;;;;;;4.95;2.97;;;;;;;;;;4996631;28;20146;-80
2023/08/12 08:52:39;;;;;;;5.30;2.97;;;;;;;;;;4981102;28;20049;-80
2023/08/12 08:55:05;;;;;;;5.32;3.10;;;;;;;;;;4976606;28;20041;-80
2023/08/12 08:57:32;;;;;;;4.38;2.83;;;;;;;;;;4981055;28;20044;-79
2023/08/12 08:59:57;;;;;;;4.60;2.60;;;;;;;;;;5004531;28;20045;-80
2023/08/12 09:02:23;;;;;;;4.88;3.10;;;;;;;;;;4982147;28;20049;-80
2023/08/12 09:04:49;;;;;;;6.53;3.03;;;;;;;;;;4982721;28;20039;-80
2023/08/12 09:07:14;;;;;;;6.72;3.17;;;;;;;;;;4982763;28;20032;-80
2023/08/12 09:09:43;;;;;;;5.85;3.10;;;;;;;;;;5012061;28;20180;-80
2023/08/12 09:12:09;;;;;;;5.68;3.20;;;;;;;;;;4976760;28;20042;-80
2023/08/12 09:14:35;;;;;;;5.37;2.80;;;;;;;;;;4989459;28;20033;-80
2023/08/12 09:17:00;;;;;;;5.40;2.85;;;;;;;;;;4980317;28;20276;-80
2023/08/12 09:19:26;;;;;;;7.13;2.85;;;;;;;;;;4989118;28;20033;-80
2023/08/12 09:21:53;;;;;;;5.88;3.05;;;;;;;;;;5010960;28;20057;-81
2023/08/12 09:24:23;;;;;;;;;;;;;;;;;;4994619;28;20087;-81
2023/08/12 09:27:00;;;;;;;5.15;3.00;;;;;;;;;;4980879;28;20399;-80
2023/08/12 09:29:34;;;;;;;5.38;2.85;;;;;;;;;;4986036;28;20484;-81
2023/08/12 09:32:10;;;;;;;4.25;2.60;;;;;;;;;;5011182;28;20123;-80
2023/08/12 09:34:36;;;;;;;6.57;3.20;;;;;;;;;;4975084;28;20039;-81
2023/08/12 09:37:03;;;;;;;5.53;3.25;;;;;;;;;;4999546;28;20447;-80
2023/08/12 09:39:29;;;;;;;4.68;2.95;;;;;;;;;;5004531;28;20056;-81
2023/08/12 09:41:55;;;;;;;5.70;3.00;;;;;;;;;;5004173;28;20043;-81
2023/08/12 09:44:22;;;;;;;6.20;3.40;;;;;;;;;;4973567;28;20045;-81
2023/08/12 09:46:48;;;;;;;4.80;3.00;;;;;;;;;;4986477;28;20440;-80
2023/08/12 09:49:14;;;;;;;4.63;3.05;;;;;;;;;;5027079;28;20083;-81
2023/08/12 09:51:42;;;;;;;5.10;3.05;;;;;;;;;;4980139;28;20034;-81
2023/08/12 09:54:11;;;;;;;5.57;2.70;;;;;;;;;;4994754;28;20095;-81
2023/08/12 09:56:37;;;;;;;5.47;2.88;;;;;;;;;;5018122;28;20038;-81
2023/08/12 09:59:06;;;;;;;6.30;2.90;;;;;;;;;;4995068;28;20084;-81
2023/08/12 10:01:52;;;;;;;5.75;3.05;;;;;;;;;;4992569;28;20029;-80
2023/08/12 10:04:22;;;;;;;6.40;2.90;;;;;;;;;;4956281;28;20042;-80
2023/08/12 10:06:50;;;;;;;5.90;3.10;;;;;;;;;;4970948;28;20035;-80
2023/08/12 10:09:16;;;;;;;4.32;2.85;;;;;;;;;;4979206;28;20051;-80
2023/08/12 10:11:45;;;;;;;5.32;3.00;;;;;;;;;;4979088;28;20481;-79
2023/08/12 10:14:16;;;;;;;7.00;3.00;;;;;;;;;;4947305;28;20041;-80
2023/08/12 10:16:46;;;;;;;4.13;3.10;;;;;;;;;;4944335;28;20038;-79
2023/08/12 10:19:12;;;;;;;5.00;2.80;;;;;;;;;;4962474;28;21245;-79
2023/08/12 10:21:37;;;;;;;5.20;3.38;;;;;;;;;;4938895;28;20041;-79
2023/08/12 10:24:03;;;;;;;5.97;3.03;;;;;;;;;;4971017;28;20093;-79
2023/08/12 10:26:29;;;;;;;6.10;3.17;;;;;;;;;;4971709;28;20047;-80
2023/08/12 10:28:54;;;;;;;6.13;2.90;;;;;;;;;;4961973;28;20489;-80
2023/08/12 10:31:22;;;;;;;7.68;3.30;;;;;;;;;;4955924;28;20049;-80
2023/08/12 10:33:49;;;;;;;6.50;3.22;;;;;;;;;;4939551;28;20205;-80
2023/08/12 10:36:15;;;;;;;5.43;3.17;;;;;;;;;;4961625;28;20062;-80
2023/08/12 10:38:40;;;;;;;7.35;3.47;;;;;;;;;;4956076;28;20485;-80
2023/08/12 10:41:23;;;;;;;4.38;2.85;;;;;;;;;;4955214;28;20029;-79
2023/08/12 10:43:55;;;;;;;4.90;3.20;;;;;;;;;;5001628;28;20853;-80
2023/08/12 10:46:44;;;;;;;6.40;2.88;;;;;;;;;;5014038;28;20087;-80
2023/08/12 10:49:11;;;;;;;6.00;3.30;;;;;;;;;;4987960;28;20079;-81
2023/08/12 10:51:48;;;;;;;4.93;3.28;;;;;;;;;;4999234;28;20049;-80
2023/08/12 10:54:26;;;;;;;5.35;2.55;;;;;;;;;;5011339;28;20045;-80
2023/08/12 10:57:08;;;;;;;5.25;3.00;;;;;;;;;;4993025;28;20504;-80
2023/08/12 10:59:45;;;;;;;4.82;3.00;;;;;;;;;;4986382;28;20088;-80
2023/08/12 11:02:17;;;;;;;5.15;3.00;;;;;;;;;;5025656;28;20030;-80
2023/08/12 11:04:43;;;;;;;6.75;3.47;;;;;;;;;;4993576;28;20394;-80
2023/08/12 11:07:16;;;;;;;7.75;3.10;;;;;;;;;;4991322;28;20040;-80
2023/08/12 11:09:42;;;;;;;4.40;2.60;;;;;;;;;;5013267;28;20578;-79
2023/08/12 11:12:08;;;;;;;3.72;2.50;;;;;;;;;;4979148;28;20030;-79
2023/08/12 11:14:48;;;;;;;8.02;2.60;;;;;;;;;;5000430;28;20041;-80
2023/08/12 11:17:14;;;;;;;5.70;2.65;;;;;;;;;;5013647;28;20029;-80
2023/08/12 11:19:41;;;;;;;4.00;2.90;;;;;;;;;;5014499;28;20033;-79
2023/08/12 11:22:07;;;;;;;4.75;2.97;;;;;;;;;;5030993;28;20548;-80
2023/08/12 11:24:36;;;;;;;4.30;2.78;;;;;;;;;;5017670;28;20126;-79
2023/08/12 11:27:02;;;;;;;4.63;2.80;;;;;;;;;;5005409;28;20460;-79
2023/08/12 11:29:28;;;;;;;5.07;2.72;;;;;;;;;;5006313;28;20034;-80
2023/08/12 11:31:54;;;;;;;5.32;2.47;;;;;;;;;;5017280;28;20042;-79
2023/08/12 11:34:24;;;;;;;3.97;2.40;;;;;;;;;;4989302;28;20034;-79
2023/08/12 11:36:49;;;;;;;5.13;2.78;;;;;;;;;;4995723;28;20489;-80
2023/08/12 11:39:15;;;;;;;5.00;2.70;;;;;;;;;;5007079;28;20084;-79
2023/08/12 11:41:40;;;;;;;7.25;2.80;;;;;;;;;;4998174;28;20477;-80
2023/08/12 11:44:11;;;;;;;4.68;2.70;;;;;;;;;;5028843;28;20030;-79
2023/08/12 11:46:37;;;;;;;3.97;2.47;;;;;;;;;;4995722;28;20087;-80
2023/08/12 11:49:02;;;;;;;4.00;2.78;;;;;;;;;;5006390;28;20033;-80
2023/08/12 11:51:28;;;;;;;3.63;2.53;;;;;;;;;;5013676;28;20033;-80
2023/08/12 11:53:53;;;;;;;7.68;2.72;;;;;;;;;;5013571;28;20064;-79
2023/08/12 11:56:20;;;;;;;4.43;2.90;;;;;;;;;;4981218;28;20115;-80
2023/08/12 11:58:51;;;;;;;4.43;2.90;;;;;;;;;;5005815;28;20068;-80
2023/08/12 12:01:17;;;;;;;4.63;3.03;;;;;;;;;;5014980;28;20494;-80
2023/08/12 12:03:43;;;;;;;4.80;2.90;;;;;;;;;;5012302;28;20036;-80
2023/08/12 12:06:08;;;;;;;5.82;2.95;;;;;;;;;;4974768;28;20808;-81
2023/08/12 12:08:34;;;;;;;4.97;3.00;;;;;;;;;;4989761;28;20066;-80
2023/08/12 12:11:06;;;;;;;4.78;2.90;;;;;;;;;;4976048;28;20030;-80
2023/08/12 12:13:31;;;;;;;4.70;2.60;;;;;;;;;;5011970;28;20038;-80
2023/08/12 12:15:57;;;;;;;4.30;3.03;;;;;;;;;;4986697;28;20038;-79
2023/08/12 12:18:25;;;;;;;4.93;2.67;;;;;;;;;;4994744;28;20038;-80
2023/08/12 12:20:57;;;;;;;5.72;2.97;;;;;;;;;;4983665;28;20508;-80
2023/08/12 12:23:27;;;;;;;4.72;3.10;;;;;;;;;;5003987;28;20440;-79
2023/08/12 12:26:03;;;;;;;4.55;2.88;;;;;;;;;;4972183;28;20049;-80
2023/08/12 12:28:29;;;;;;;5.70;3.20;;;;;;;;;;4996497;28;20493;-80
2023/08/12 12:30:54;;;;;;;6.38;3.10;;;;;;;;;;5003410;28;20045;-79
2023/08/12 12:33:20;;;;;;;5.70;3.13;;;;;;;;;;5019824;28;20083;-79
2023/08/12 12:35:45;;;;;;;5.13;3.10;;;;;;;;;;5011265;28;20586;-80
2023/08/12 12:38:16;;;;;;;7.35;2.97;;;;;;;;;;4991815;28;20042;-79
2023/08/12 12:40:42;;;;;;;5.40;3.13;;;;;;;;;;4993466;28;20223;-80
2023/08/12 12:43:07;;;;;;;4.47;2.67;;;;;;;;;;5012025;28;20041;-80
2023/08/12 12:45:38;;;;;;;4.88;2.75;;;;;;;;;;4979879;28;20037;-79
2023/08/12 12:48:04;;;;;;;6.45;2.80;;;;;;;;;;5013157;28;20417;-80
2023/08/12 12:50:29;;;;;;;5.95;2.95;;;;;;;;;;5020195;28;20042;-80
2023/08/12 12:52:55;;;;;;;4.25;2.70;;;;;;;;;;4979753;28;20037;-79
2023/08/12 12:55:20;;;;;;;5.13;2.35;;;;;;;;;;4996536;28;20045;-80
2023/08/12 12:57:46;;;;;;;3.97;2.35;;;;;;;;;;4999727;28;20048;-80
2023/08/12 13:00:11;;;;;;;3.92;2.40;;;;;;;;;;4985717;28;20069;-80
2023/08/12 13:02:37;;;;;;;6.15;2.70;;;;;;;;;;5000518;28;20030;-79
2023/08/12 13:05:03;;;;;;;3.65;2.25;;;;;;;;;;4987980;28;20034;-80
2023/08/12 13:07:28;;;;;;;4.18;2.72;;;;;;;;;;4982201;28;20036;-81
2023/08/12 13:09:57;;;;;;;4.28;2.50;;;;;;;;;;4985633;28;20085;-79
2023/08/12 13:12:26;;;;;;;4.07;2.60;;;;;;;;;;4960431;28;20053;-80
2023/08/12 13:14:51;;;;;;;3.78;2.60;;;;;;;;;;5000070;28;20033;-80
2023/08/12 13:17:16;;;;;;;4.57;2.50;;;;;;;;;;4988466;28;20073;-80
2023/08/12 13:19:42;;;;;;;4.43;2.58;;;;;;;;;;5004349;28;20034;-79
2023/08/12 13:22:07;;;;;;;5.40;2.53;;;;;;;;;;4978612;28;20121;-79
2023/08/12 13:24:32;;;;;;;3.92;2.45;;;;;;;;;;4986059;28;20503;-79
2023/08/12 13:26:58;;;;;;;5.60;2.60;;;;;;;;;;5027533;28;20107;-79
2023/08/12 13:29:23;;;;;;;4.00;2.40;;;;;;;;;;4981073;28;20702;-79
2023/08/12 13:31:49;;;;;;;4.63;2.72;;;;;;;;;;4988280;28;20038;-79
2023/08/12 13:34:14;;;;;;;3.75;2.38;;;;;;;;;;4992585;28;20038;-80
2023/08/12 13:36:40;;;;;;;4.18;2.50;;;;;;;;;;5028380;28;20034;-80
2023/08/12 13:39:05;;;;;;;4.75;2.40;;;;;;;;;;4993650;28;20041;-79
2023/08/12 13:41:30;;;;;;;3.70;2.60;;;;;;;;;;5001805;28;20030;-80
2023/08/12 13:43:56;;;;;;;4.05;2.50;;;;;;;;;;5015946;28;20038;-79
2023/08/12 13:46:21;;;;;;;4.35;2.28;;;;;;;;;;5008323;28;20026;-79
2023/08/12 13:48:46;;;;;;;4.93;2.33;;;;;;;;;;4987552;28;20413;-80
2023/08/12 13:51:15;;;;;;;4.32;2.15;;;;;;;;;;5003840;28;20038;-79
2023/08/12 13:53:40;;;;;;;4.20;2.33;;;;;;;;;;4972809;28;20440;-79
2023/08/12 13:56:06;;;;;;;3.92;2.38;;;;;;;;;;4989284;28;20034;-79
2023/08/12 13:58:31;;;;;;;3.50;2.30;;;;;;;;;;4987378;28;20041;-79
2023/08/12 14:00:57;;;;;;;4.20;2.05;;;;;;;;;;4986445;28;20588;-80
2023/08/12 14:03:23;;;;;;;3.80;2.10;;;;;;;;;;5016111;28;20041;-80
2023/08/12 14:05:48;;;;;;;3.38;2.00;;;;;;;;;;4994276;28;20045;-80
2023/08/12 14:08:14;;;;;;;3.60;1.88;;;;;;;;;;4980971;28;20041;-79
2023/08/12 14:10:40;;;;;;;3.67;1.90;;;;;;;;;;5013375;28;20797;-78
2023/08/12 14:13:06;;;;;;;4.25;1.80;;;;;;;;;;4987752;28;20045;-79
2023/08/12 14:15:31;;;;;;;3.33;1.80;;;;;;;;;;5003411;28;20041;-81
2023/08/12 14:17:57;;;;;;;3.72;1.80;;;;;;;;;;5002849;28;20034;-80
2023/08/12 14:20:23;;;;;;;4.18;2.05;;;;;;;;;;4979099;28;20081;-80
2023/08/12 14:22:48;;;;;;;4.07;1.90;;;;;;;;;;4995249;28;20045;-80
2023/08/12 14:25:13;;;;;;;4.80;1.95;;;;;;;;;;4983102;28;20038;-80
2023/08/12 14:27:39;;;;;;;3.30;2.00;;;;;;;;;;5017538;28;20064;-79
2023/08/12 14:30:05;;;;;;;3.22;1.70;;;;;;;;;;5009899;28;20385;-80
2023/08/12 14:32:31;;;;;;;3.10;1.73;;;;;;;;;;5012360;28;20151;-80
2023/08/12 14:34:56;;;;;;;2.88;1.60;;;;;;;;;;4979147;28;20045;-79
2023/08/12 14:37:21;;;;;;;3.20;1.67;;;;;;;;;;4986520;28;20429;-80
2023/08/12 14:39:47;;;;;;;4.18;1.88;;;;;;;;;;5004893;28;20034;-80
2023/08/12 14:42:12;;;;;;;5.00;1.70;;;;;;;;;;5018777;28;20032;-80
2023/08/12 14:44:37;;;;;;;2.78;1.45;;;;;;;;;;5022598;28;20969;-80